Time;durP1;ratioP1;P1;durP2;ratioP2;P2;SDS_P1;SDS_P2;PMS_P1;PMS_P2;Temp;Humidity;BMP_temperature;BMP_pressure;BME280_temperature;BME280_humidity;BME280_pressure;Samples;Min_cycle;Max_cycle;Signal;HPM_P1;HPM_P2
2023/01/31 00:01:16;;;;;;;9.93;5.07;;;3.40;37.20;;;;;;6033416;23;20487;-65
2023/01/31 00:03:43;;;;;;;11.10;5.43;;;3.40;37.20;;;;;;6033525;23;20756;-65
2023/01/31 00:06:16;;;;;;;9.17;5.07;;;3.30;37.20;;;;;;6034770;23;20810;-65
2023/01/31 00:08:43;;;;;;;9.50;4.97;;;3.30;37.30;;;;;;6034843;23;20466;-66
2023/01/31 00:11:11;;;;;;;11.77;5.00;;;3.30;37.10;;;;;;6030089;23;20447;-66
2023/01/31 00:13:39;;;;;;;9.50;5.83;;;3.20;37.00;;;;;;6034399;23;20476;-66
2023/01/31 00:16:07;;;;;;;9.70;4.87;;;3.10;37.20;;;;;;6032788;23;20420;-65
2023/01/31 00:18:34;;;;;;;9.73;5.20;;;3.10;37.40;;;;;;6033859;23;20789;-65
2023/01/31 00:21:06;;;;;;;9.40;4.77;;;3.10;37.50;;;;;;6033624;23;20459;-66
2023/01/31 00:23:33;;;;;;;12.43;6.37;;;3.00;37.70;;;;;;6032125;23;20404;-66
2023/01/31 00:26:08;;;;;;;13.27;6.47;;;3.00;37.80;;;;;;6034102;23;20424;-65
2023/01/31 00:28:34;;;;;;;11.97;5.50;;;2.90;38.00;;;;;;6032551;23;20428;-65
2023/01/31 00:31:03;;;;;;;9.70;4.93;;;2.90;38.00;;;;;;6033616;23;20444;-65
2023/01/31 00:33:29;;;;;;;9.13;5.23;;;2.90;38.00;;;;;;6033109;23;20420;-65
2023/01/31 00:35:56;;;;;;;10.43;5.43;;;2.90;38.00;;;;;;6034533;23;20447;-66
2023/01/31 00:38:23;;;;;;;10.00;5.57;;;2.90;38.00;;;;;;6033562;23;20420;-67
2023/01/31 00:40:52;;;;;;;11.07;5.73;;;2.90;38.00;;;;;;6033709;23;20440;-66
2023/01/31 00:43:19;;;;;;;10.20;4.83;;;2.80;38.00;;;;;;6033521;23;20431;-66
2023/01/31 00:45:46;;;;;;;12.87;5.97;;;2.80;37.90;;;;;;6033442;23;20420;-66
2023/01/31 00:48:14;;;;;;;10.57;5.60;;;2.80;38.00;;;;;;6034208;23;20625;-66
2023/01/31 00:50:41;;;;;;;10.20;5.37;;;2.80;37.90;;;;;;6033791;23;20756;-65
2023/01/31 00:53:08;;;;;;;9.90;5.30;;;2.80;37.90;;;;;;6034135;23;20443;-66
2023/01/31 00:55:35;;;;;;;10.27;5.43;;;2.70;38.00;;;;;;6032665;23;20910;-66
2023/01/31 00:58:02;;;;;;;9.63;5.23;;;2.70;38.10;;;;;;6033668;23;20416;-65
2023/01/31 01:00:29;;;;;;;14.53;6.10;;;2.60;38.10;;;;;;6033120;23;20436;-65
2023/01/31 01:02:55;;;;;;;11.90;6.70;;;2.60;38.30;;;;;;6034005;23;20427;-66
2023/01/31 01:05:24;;;;;;;12.80;5.63;;;2.50;38.30;;;;;;6033155;23;20419;-65
2023/01/31 01:07:50;;;;;;;12.40;6.07;;;2.50;38.40;;;;;;6033106;23;20451;-66
2023/01/31 01:10:17;;;;;;;10.93;4.73;;;2.40;38.50;;;;;;6033551;23;20444;-67
2023/01/31 01:12:44;;;;;;;12.63;5.80;;;2.40;38.50;;;;;;6033126;23;20799;-66
2023/01/31 01:15:11;;;;;;;10.70;6.63;;;2.30;38.60;;;;;;6033382;23;20420;-66
2023/01/31 01:17:38;;;;;;;8.90;5.00;;;2.30;38.70;;;;;;6033278;23;20423;-66
2023/01/31 01:20:05;;;;;;;12.83;6.40;;;2.30;38.70;;;;;;6033432;23;20448;-65
2023/01/31 01:22:35;;;;;;;11.73;6.67;;;2.20;38.90;;;;;;6033179;23;20405;-65
2023/01/31 01:25:02;;;;;;;11.47;5.40;;;2.20;38.90;;;;;;6033111;23;20820;-66
2023/01/31 01:27:28;;;;;;;12.57;6.17;;;2.20;38.90;;;;;;6032974;23;21039;-66
2023/01/31 01:29:55;;;;;;;9.43;5.17;;;2.20;39.00;;;;;;6033305;23;20956;-65
2023/01/31 01:32:22;;;;;;;9.83;5.73;;;2.20;39.10;;;;;;6031619;23;20453;-66
2023/01/31 01:34:48;;;;;;;10.77;5.50;;;2.20;39.10;;;;;;6033269;23;20450;-66
2023/01/31 01:37:18;;;;;;;10.07;5.07;;;2.20;39.20;;;;;;6033090;23;20424;-65
2023/01/31 01:39:47;;;;;;;10.30;5.37;;;2.20;39.30;;;;;;6033624;23;20444;-66
2023/01/31 01:42:16;;;;;;;9.43;5.20;;;2.10;39.30;;;;;;6032121;23;20909;-66
2023/01/31 01:44:46;;;;;;;10.67;6.30;;;2.10;39.40;;;;;;6032845;23;20427;-66
2023/01/31 01:47:18;;;;;;;12.30;6.00;;;2.10;39.50;;;;;;6031417;23;20405;-66
2023/01/31 01:49:49;;;;;;;16.27;5.17;;;2.10;39.40;;;;;;6032604;23;20448;-65
2023/01/31 01:52:17;;;;;;;15.43;5.70;;;2.10;39.40;;;;;;6032583;23;20750;-65
2023/01/31 01:54:48;;;;;;;11.07;6.03;;;2.10;39.40;;;;;;6032843;23;20420;-65
2023/01/31 01:57:20;;;;;;;10.17;5.67;;;2.10;39.40;;;;;;6031156;23;20408;-65
2023/01/31 01:59:52;;;;;;;10.23;5.57;;;2.10;39.30;;;;;;6033508;23;20437;-65
2023/01/31 02:02:19;;;;;;;11.50;5.80;;;2.10;39.40;;;;;;6032054;23;20447;-65
2023/01/31 02:04:49;;;;;;;10.50;5.10;;;2.00;39.30;;;;;;6032757;23;20427;-66
2023/01/31 02:07:16;;;;;;;11.73;5.57;;;2.00;39.40;;;;;;6032698;23;20436;-66
2023/01/31 02:09:50;;;;;;;10.13;5.90;;;2.00;39.20;;;;;;6032890;23;20475;-66
2023/01/31 02:12:17;;;;;;;15.23;6.30;;;2.00;39.20;;;;;;6033265;23;20408;-66
2023/01/31 02:14:46;;;;;;;9.43;5.10;;;2.00;39.20;;;;;;6032168;23;20420;-65
2023/01/31 02:17:13;;;;;;;16.53;5.70;;;2.00;39.30;;;;;;6030228;23;20419;-66
2023/01/31 02:19:51;;;;;;;8.73;4.90;;;2.00;39.20;;;;;;6032608;23;20492;-65
2023/01/31 02:22:24;;;;;;;9.80;5.50;;;2.00;39.30;;;;;;6030646;23;20411;-65
2023/01/31 02:25:37;;;;;;;12.20;5.50;;;2.00;39.20;;;;;;6032507;23;20923;-65
2023/01/31 02:28:51;;;;;;;12.43;4.87;;;2.00;39.40;;;;;;6032442;23;20435;-65
2023/01/31 02:31:59;;;;;;;10.53;5.27;;;1.90;39.40;;;;;;5942787;24;20450;-66
2023/01/31 02:34:35;;;;;;;13.20;6.03;;;1.90;39.40;;;;;;6032745;23;20420;-66
2023/01/31 02:37:14;;;;;;;11.63;5.50;;;1.90;39.40;;;;;;6033016;23;20411;-65
2023/01/31 02:39:49;;;;;;;11.73;5.40;;;1.90;39.40;;;;;;6032952;23;20439;-66
2023/01/31 02:42:23;;;;;;;11.77;5.53;;;1.90;39.20;;;;;;6030711;23;20415;-66
2023/01/31 02:44:59;;;;;;;18.77;6.33;;;1.90;39.30;;;;;;6032556;23;20892;-66
2023/01/31 02:47:35;;;;;;;11.20;5.37;;;1.90;39.30;;;;;;6032853;23;20523;-66
2023/01/31 02:50:11;;;;;;;10.37;5.20;;;1.90;39.20;;;;;;6032859;23;20459;-66
2023/01/31 02:52:46;;;;;;;10.57;4.40;;;1.90;39.10;;;;;;6031752;23;20408;-66
2023/01/31 02:58:03;;;;;;;10.30;5.60;;;1.90;38.90;;;;;;6032063;23;20416;-65
2023/01/31 03:00:34;;;;;;;12.67;5.13;;;1.90;38.80;;;;;;6031255;23;20500;-66
2023/01/31 03:03:03;;;;;;;15.33;4.70;;;1.90;38.90;;;;;;6028718;23;20705;-66
2023/01/31 03:05:31;;;;;;;12.30;5.17;;;1.90;38.80;;;;;;6032661;23;20424;-67
2023/01/31 03:08:01;;;;;;;10.93;4.50;;;1.90;38.70;;;;;;6035086;23;20462;-66
2023/01/31 03:10:43;;;;;;;10.70;4.40;;;1.90;38.60;;;;;;6034993;23;20447;-66
2023/01/31 03:13:23;;;;;;;14.50;5.43;;;1.90;38.60;;;;;;6033225;23;20409;-65
2023/01/31 03:18:52;;;;;;;12.83;5.30;;;1.80;38.30;;;;;;6034380;23;20464;-66
2023/01/31 03:21:26;;;;;;;9.83;5.53;;;1.80;38.20;;;;;;6034069;23;20455;-66
2023/01/31 03:23:56;;;;;;;12.07;5.30;;;1.80;38.40;;;;;;6033668;23;20407;-66
2023/01/31 03:26:25;;;;;;;9.70;4.77;;;1.70;38.50;;;;;;6034012;23;20408;-66
2023/01/31 03:28:56;;;;;;;18.73;6.00;;;1.80;38.60;;;;;;6034632;23;20451;-66
2023/01/31 03:31:26;;;;;;;16.80;6.30;;;1.70;38.60;;;;;;6033347;23;20534;-67
2023/01/31 03:33:57;;;;;;;12.53;5.27;;;1.70;38.70;;;;;;6033331;23;20417;-66
2023/01/31 03:36:30;;;;;;;12.60;6.43;;;1.70;38.70;;;;;;6031814;23;20404;-66
2023/01/31 03:39:09;;;;;;;17.10;5.70;;;1.70;38.70;;;;;;6042672;23;20405;-67
2023/01/31 03:41:43;;;;;;;13.10;6.10;;;1.80;38.70;;;;;;6033094;23;20439;-67
2023/01/31 03:44:15;;;;;;;14.50;5.83;;;1.80;38.70;;;;;;6034330;23;20414;-66
2023/01/31 03:46:46;;;;;;;10.90;5.80;;;1.80;38.60;;;;;;6032797;23;20411;-66
2023/01/31 03:49:15;;;;;;;12.40;6.27;;;1.90;38.60;;;;;;6034873;23;20494;-66
2023/01/31 03:51:46;;;;;;;12.70;5.83;;;1.90;38.50;;;;;;6033688;23;20451;-65
2023/01/31 03:54:18;;;;;;;9.20;5.17;;;2.00;38.40;;;;;;6031489;23;21129;-66
2023/01/31 03:56:48;;;;;;;9.90;5.40;;;2.00;38.10;;;;;;6033876;23;20412;-66
2023/01/31 03:59:21;;;;;;;10.93;5.07;;;2.00;38.10;;;;;;6032605;23;20419;-65
2023/01/31 04:01:51;;;;;;;12.60;5.80;;;2.00;38.10;;;;;;6032520;23;20451;-66
2023/01/31 04:04:21;;;;;;;13.33;6.60;;;2.00;37.90;;;;;;6034486;23;20424;-66
2023/01/31 04:06:49;;;;;;;12.20;6.40;;;2.10;37.90;;;;;;6033355;23;20412;-66
2023/01/31 04:09:16;;;;;;;14.07;5.97;;;2.10;37.80;;;;;;6033797;23;20451;-66
2023/01/31 04:11:48;;;;;;;16.17;6.27;;;2.00;37.50;;;;;;6034193;23;20430;-66
2023/01/31 04:14:15;;;;;;;13.80;6.80;;;2.10;37.70;;;;;;6032941;23;20901;-65
2023/01/31 04:16:42;;;;;;;15.07;7.10;;;2.10;37.60;;;;;;6033521;23;20430;-66
2023/01/31 04:19:08;;;;;;;12.00;6.40;;;2.10;37.60;;;;;;6033495;23;20423;-65
2023/01/31 04:21:35;;;;;;;11.13;6.53;;;2.10;37.50;;;;;;6033252;23;20879;-66
2023/01/31 04:24:03;;;;;;;18.50;7.70;;;2.10;37.50;;;;;;6032635;23;20423;-66
2023/01/31 04:26:30;;;;;;;12.03;6.47;;;2.10;37.40;;;;;;6033608;23;20793;-66
2023/01/31 04:28:57;;;;;;;11.73;6.80;;;2.10;37.40;;;;;;6032778;23;20447;-65
2023/01/31 04:31:23;;;;;;;12.50;6.17;;;2.10;37.30;;;;;;6031135;23;20447;-69
2023/01/31 04:33:50;;;;;;;9.83;5.90;;;2.10;37.30;;;;;;6031776;23;20420;-65
2023/01/31 04:36:17;;;;;;;15.53;6.60;;;2.10;37.30;;;;;;6031465;23;20420;-67
2023/01/31 04:38:43;;;;;;;10.37;5.73;;;2.10;37.10;;;;;;6031217;23;20483;-66
2023/01/31 04:41:11;;;;;;;15.90;6.47;;;2.20;37.00;;;;;;6033064;23;20448;-65
2023/01/31 04:43:38;;;;;;;14.00;6.30;;;2.20;37.00;;;;;;6031549;23;20940;-66
2023/01/31 04:46:05;;;;;;;10.63;6.67;;;2.10;37.10;;;;;;6033157;23;20424;-66
2023/01/31 04:48:31;;;;;;;14.50;6.20;;;2.10;37.00;;;;;;6031281;23;20420;-65
2023/01/31 04:50:58;;;;;;;13.40;6.30;;;2.20;36.90;;;;;;6032800;23;20765;-67
2023/01/31 04:53:25;;;;;;;12.03;5.67;;;2.20;36.80;;;;;;6033230;23;20420;-65
2023/01/31 04:55:54;;;;;;;11.93;5.23;;;2.20;36.70;;;;;;6030877;23;20420;-66
2023/01/31 04:58:22;;;;;;;13.80;5.27;;;2.10;36.50;;;;;;6033333;23;20451;-62
2023/01/31 05:00:49;;;;;;;22.43;5.90;;;2.10;37.00;;;;;;6030851;23;20889;-67
2023/01/31 05:03:16;;;;;;;16.07;6.50;;;2.10;37.40;;;;;;6032525;23;20424;-65
2023/01/31 05:05:43;;;;;;;13.70;5.90;;;2.10;37.10;;;;;;6030282;23;20424;-66
2023/01/31 05:08:09;;;;;;;14.20;6.00;;;2.10;37.20;;;;;;6031604;23;20501;-67
2023/01/31 05:10:36;;;;;;;10.30;5.67;;;2.10;36.70;;;;;;6032438;23;20452;-67
2023/01/31 05:13:03;;;;;;;15.90;5.40;;;2.10;36.70;;;;;;6032242;23;20444;-66
2023/01/31 05:15:32;;;;;;;13.43;6.20;;;2.10;36.60;;;;;;6032305;23;20748;-66
2023/01/31 05:18:01;;;;;;;11.10;4.30;;;2.10;36.60;;;;;;6033918;23;20655;-66
2023/01/31 05:20:29;;;;;;;14.40;5.70;;;2.10;36.60;;;;;;6033616;23;20499;-66
2023/01/31 05:22:56;;;;;;;17.00;5.80;;;2.10;36.60;;;;;;6033518;23;20505;-66
2023/01/31 05:25:23;;;;;;;10.90;6.80;;;2.00;36.50;;;;;;6032911;23;20424;-66
2023/01/31 05:27:50;;;;;;;10.60;4.90;;;2.00;36.50;;;;;;6033443;23;20424;-67
2023/01/31 05:30:17;;;;;;;9.90;4.73;;;2.00;36.50;;;;;;6033145;23;20448;-66
2023/01/31 05:32:46;;;;;;;10.20;5.10;;;1.90;36.70;;;;;;6032710;23;20428;-66
2023/01/31 05:35:13;;;;;;;9.33;5.30;;;2.00;36.80;;;;;;6032762;23;20907;-67
2023/01/31 05:37:41;;;;;;;15.93;6.10;;;1.90;36.70;;;;;;6033145;23;20432;-64
2023/01/31 05:40:10;;;;;;;13.87;5.30;;;1.90;36.80;;;;;;6033403;23;20440;-64
2023/01/31 05:42:36;;;;;;;11.60;5.60;;;1.90;36.90;;;;;;6032457;23;20445;-66
2023/01/31 05:45:04;;;;;;;12.33;5.40;;;1.90;36.80;;;;;;6032998;23;20447;-66
2023/01/31 05:47:31;;;;;;;12.77;5.93;;;1.90;36.80;;;;;;6033390;23;20790;-66
2023/01/31 05:49:59;;;;;;;16.70;5.63;;;1.80;36.80;;;;;;6030724;23;20447;-64
2023/01/31 05:52:26;;;;;;;18.50;6.40;;;1.80;37.20;;;;;;6032776;23;20420;-65
2023/01/31 05:54:53;;;;;;;16.10;6.23;;;1.80;37.20;;;;;;6031509;23;20423;-64
2023/01/31 05:57:19;;;;;;;12.03;5.40;;;1.70;37.10;;;;;;6031016;23;20430;-66
2023/01/31 05:59:46;;;;;;;9.87;5.80;;;1.70;37.10;;;;;;6031114;23;20436;-65
2023/01/31 06:02:13;;;;;;;13.67;6.40;;;1.60;37.00;;;;;;6031571;23;21010;-65
2023/01/31 06:04:39;;;;;;;13.87;6.03;;;1.60;37.20;;;;;;6032584;23;20428;-64
2023/01/31 06:07:08;;;;;;;13.13;5.63;;;1.60;37.20;;;;;;6030341;23;20792;-65
2023/01/31 06:09:37;;;;;;;16.03;5.90;;;1.60;37.40;;;;;;6031066;23;20457;-64
2023/01/31 06:12:04;;;;;;;11.87;6.33;;;1.50;37.40;;;;;;6032088;23;20527;-65
2023/01/31 06:14:31;;;;;;;12.50;6.50;;;1.50;37.50;;;;;;6031185;23;20424;-65
2023/01/31 06:16:58;;;;;;;15.23;6.80;;;1.50;37.50;;;;;;6030141;23;20428;-65
2023/01/31 06:19:25;;;;;;;13.93;6.73;;;1.40;37.50;;;;;;6030814;23;20427;-66
2023/01/31 06:21:51;;;;;;;11.90;5.30;;;1.40;37.60;;;;;;6032828;23;21222;-66
2023/01/31 06:24:20;;;;;;;17.07;6.40;;;1.40;37.60;;;;;;6032833;23;20420;-65
2023/01/31 06:26:46;;;;;;;13.70;7.10;;;1.40;37.60;;;;;;6032667;23;20428;-65
2023/01/31 06:29:13;;;;;;;13.03;5.80;;;1.40;37.70;;;;;;6031971;23;20440;-65
2023/01/31 06:31:43;;;;;;;11.63;5.50;;;1.40;37.80;;;;;;6031941;23;20451;-66
2023/01/31 06:34:10;;;;;;;15.40;5.80;;;1.50;37.90;;;;;;6032440;23;20405;-66
2023/01/31 06:36:37;;;;;;;10.63;6.00;;;1.60;37.80;;;;;;6033196;23;20733;-65
2023/01/31 06:39:03;;;;;;;11.57;6.40;;;1.60;37.70;;;;;;6032784;23;20420;-65
2023/01/31 06:41:32;;;;;;;9.43;5.20;;;1.60;37.60;;;;;;6033128;23;20941;-65
2023/01/31 06:43:58;;;;;;;11.63;5.30;;;1.70;37.60;;;;;;6033443;23;20424;-65
2023/01/31 06:46:25;;;;;;;12.63;6.00;;;1.80;37.40;;;;;;6039670;23;20753;-65
2023/01/31 06:48:52;;;;;;;14.80;6.23;;;1.80;37.30;;;;;;6033641;23;20420;-64
2023/01/31 06:51:18;;;;;;;16.13;5.60;;;1.90;37.00;;;;;;6031360;23;20459;-65
2023/01/31 06:53:45;;;;;;;13.33;5.77;;;1.90;37.00;;;;;;6033334;23;20447;-65
2023/01/31 06:56:12;;;;;;;14.83;5.63;;;2.00;36.80;;;;;;6032483;23;20420;-65
2023/01/31 06:58:40;;;;;;;11.50;6.37;;;2.00;36.60;;;;;;6033777;23;20424;-65
2023/01/31 07:01:08;;;;;;;16.53;6.50;;;2.00;36.60;;;;;;6032252;23;20471;-65
2023/01/31 07:03:35;;;;;;;12.03;6.40;;;2.00;36.40;;;;;;6033824;23;20420;-66
2023/01/31 07:06:02;;;;;;;17.67;6.37;;;2.10;36.50;;;;;;6033024;23;20420;-64
2023/01/31 07:08:28;;;;;;;14.33;6.87;;;2.10;36.40;;;;;;6032119;23;20757;-63
2023/01/31 07:10:55;;;;;;;15.90;6.47;;;2.20;36.30;;;;;;6033440;23;20448;-64
2023/01/31 07:13:22;;;;;;;10.07;6.20;;;2.20;36.30;;;;;;6032361;23;20429;-64
2023/01/31 07:15:50;;;;;;;12.90;6.00;;;2.30;36.20;;;;;;6033390;23;20449;-65
2023/01/31 07:18:17;;;;;;;11.67;6.70;;;2.30;35.90;;;;;;6033473;23;20442;-64
2023/01/31 07:20:43;;;;;;;10.10;5.10;;;2.30;35.70;;;;;;6032574;23;20448;-65
2023/01/31 07:23:10;;;;;;;12.07;5.33;;;2.30;35.60;;;;;;6033050;23;20924;-65
2023/01/31 07:25:37;;;;;;;13.17;6.50;;;2.30;36.00;;;;;;6032394;23;20424;-64
2023/01/31 07:28:04;;;;;;;12.63;6.53;;;2.40;35.90;;;;;;6033608;23;20442;-65
2023/01/31 07:30:31;;;;;;;14.10;6.00;;;2.40;35.20;;;;;;6032977;23;20448;-66
2023/01/31 07:33:01;;;;;;;15.90;6.33;;;2.40;35.10;;;;;;6032897;23;20420;-64
2023/01/31 07:35:28;;;;;;;10.70;5.50;;;2.40;35.10;;;;;;6033042;23;20431;-66
2023/01/31 07:37:55;;;;;;;13.60;6.77;;;2.40;35.10;;;;;;6032357;23;20591;-65
2023/01/31 07:40:22;;;;;;;9.60;5.60;;;2.50;34.80;;;;;;6033059;23;20447;-65
2023/01/31 07:42:48;;;;;;;21.83;7.40;;;2.50;34.90;;;;;;6032826;23;20420;-66
2023/01/31 07:45:16;;;;;;;12.73;7.50;;;2.50;35.00;;;;;;6033563;23;20428;-65
2023/01/31 07:47:43;;;;;;;11.30;6.10;;;2.60;34.60;;;;;;6033432;23;20423;-66
2023/01/31 07:50:12;;;;;;;16.77;6.00;;;2.70;34.30;;;;;;6033585;23;20452;-66
2023/01/31 07:52:38;;;;;;;11.20;6.10;;;2.80;33.90;;;;;;6033587;23;21119;-66
2023/01/31 07:55:06;;;;;;;12.90;6.17;;;2.80;33.40;;;;;;6034745;23;20431;-65
2023/01/31 07:57:33;;;;;;;12.10;5.40;;;2.80;33.20;;;;;;6035370;23;20427;-65
2023/01/31 07:59:59;;;;;;;10.13;6.17;;;2.80;33.00;;;;;;6034837;23;20436;-65
2023/01/31 08:05:12;;;;;;;13.60;7.10;;;2.80;33.60;;;;;;6034297;23;20411;-66
2023/01/31 08:07:40;;;;;;;13.67;5.80;;;3.50;33.40;;;;;;6034004;23;20958;-65
2023/01/31 08:10:08;;;;;;;11.50;5.80;;;4.30;31.80;;;;;;6034157;23;20451;-66
2023/01/31 08:12:35;;;;;;;14.07;5.27;;;4.90;29.00;;;;;;6034662;23;20475;-66
2023/01/31 08:15:02;;;;;;;10.10;5.30;;;5.50;27.20;;;;;;6034823;23;20419;-66
2023/01/31 08:17:28;;;;;;;10.40;5.17;;;5.90;25.20;;;;;;6034011;23;20424;-66
2023/01/31 08:19:55;;;;;;;9.27;5.13;;;5.80;24.30;;;;;;6034133;23;20454;-66
2023/01/31 08:22:24;;;;;;;9.70;5.10;;;5.70;24.10;;;;;;6034252;23;20897;-65
2023/01/31 08:24:51;;;;;;;9.47;6.00;;;5.90;24.50;;;;;;6034956;23;20528;-66
2023/01/31 08:27:17;;;;;;;11.83;6.00;;;6.30;24.10;;;;;;6033817;23;20929;-66
2023/01/31 08:29:44;;;;;;;10.00;5.37;;;6.70;23.20;;;;;;6034421;23;20451;-66
2023/01/31 08:32:11;;;;;;;12.40;5.70;;;7.00;21.70;;;;;;6033617;23;20451;-66
2023/01/31 08:34:37;;;;;;;10.70;4.73;;;7.40;21.20;;;;;;6034134;23;20427;-66
2023/01/31 08:37:04;;;;;;;11.00;5.00;;;7.80;19.80;;;;;;6033791;23;20427;-66
2023/01/31 08:39:32;;;;;;;10.33;5.47;;;8.20;18.60;;;;;;6034410;23;20757;-66
2023/01/31 08:41:59;;;;;;;11.07;5.40;;;8.50;17.80;;;;;;6032388;23;20420;-67
2023/01/31 08:44:26;;;;;;;12.20;4.93;;;8.80;16.90;;;;;;6034349;23;20519;-66
2023/01/31 08:46:52;;;;;;;12.20;5.30;;;9.00;15.90;;;;;;6033083;23;20426;-66
2023/01/31 08:49:19;;;;;;;13.50;5.80;;;9.30;15.30;;;;;;6034502;23;20424;-67
2023/01/31 08:51:46;;;;;;;10.83;5.13;;;9.30;14.30;;;;;;6033660;23;20773;-65
2023/01/31 08:54:14;;;;;;;10.53;5.43;;;9.20;14.40;;;;;;6034277;23;20424;-66
2023/01/31 08:56:42;;;;;;;12.53;5.70;;;9.20;14.50;;;;;;6034450;23;20818;-67
2023/01/31 08:59:10;;;;;;;10.03;5.70;;;9.30;14.30;;;;;;6034546;23;20427;-67
2023/01/31 09:01:37;;;;;;;13.00;5.10;;;9.40;14.20;;;;;;6033063;23;20443;-67
2023/01/31 09:04:04;;;;;;;14.53;6.03;;;9.50;14.30;;;;;;6033510;23;20759;-67
2023/01/31 09:06:31;;;;;;;11.30;4.83;;;9.70;14.00;;;;;;6034224;23;20424;-68
2023/01/31 09:08:58;;;;;;;9.60;5.50;;;10.20;13.40;;;;;;6034603;23;20438;-66
2023/01/31 09:11:27;;;;;;;10.37;5.87;;;10.90;12.20;;;;;;6033214;23;21096;-67
2023/01/31 09:13:55;;;;;;;9.73;5.80;;;11.80;10.80;;;;;;6033261;23;20914;-66
2023/01/31 09:16:22;;;;;;;14.63;5.63;;;12.60;8.70;;;;;;6034416;23;20420;-67
2023/01/31 09:18:49;;;;;;;8.00;4.97;;;13.60;7.40;;;;;;6031538;23;20431;-66
2023/01/31 09:21:18;;;;;;;7.90;4.37;;;14.40;6.00;;;;;;6033832;23;20454;-65
2023/01/31 09:23:46;;;;;;;10.70;4.93;;;15.20;4.40;;;;;;6032002;23;20424;-66
2023/01/31 09:26:13;;;;;;;14.17;4.40;;;15.50;3.30;;;;;;6034498;23;20419;-67
2023/01/31 09:28:41;;;;;;;9.00;4.30;;;15.70;3.10;;;;;;6032394;23;20424;-66
2023/01/31 09:31:12;;;;;;;8.23;4.73;;;16.50;1.90;;;;;;6032796;23;20829;-67
2023/01/31 09:33:39;;;;;;;9.67;4.67;;;17.60;1.00;;;;;;6034480;23;20409;-67
2023/01/31 09:36:08;;;;;;;9.60;4.57;;;17.10;1.00;;;;;;6032293;23;20420;-67
2023/01/31 09:38:35;;;;;;;8.70;5.27;;;15.80;1.60;;;;;;6033995;23;21180;-66
2023/01/31 09:41:05;;;;;;;9.10;4.90;;;14.50;2.70;;;;;;6032894;23;20833;-67
2023/01/31 09:43:39;;;;;;;9.70;5.00;;;13.40;4.40;;;;;;6033751;23;20420;-66
2023/01/31 09:46:08;;;;;;;8.07;4.70;;;12.60;5.50;;;;;;6033834;23;20404;-67
2023/01/31 09:48:39;;;;;;;9.80;4.70;;;11.90;6.50;;;;;;6033351;23;20430;-66
2023/01/31 09:51:06;;;;;;;10.57;4.67;;;11.50;7.70;;;;;;6033868;23;20444;-66
2023/01/31 09:53:37;;;;;;;10.90;6.10;;;11.20;8.40;;;;;;6043236;23;21104;-66
2023/01/31 09:56:22;;;;;;;8.57;4.53;;;10.90;9.20;;;;;;6033388;23;20405;-66
2023/01/31 09:58:59;;;;;;;9.57;5.00;;;10.60;9.50;;;;;;6033816;23;20411;-66
2023/01/31 10:01:32;;;;;;;11.10;5.40;;;10.60;10.10;;;;;;6032596;23;20515;-66
2023/01/31 10:04:20;;;;;;;11.73;4.77;;;10.50;10.80;;;;;;6032411;23;20796;-66
2023/01/31 10:06:52;;;;;;;11.10;5.20;;;10.60;10.50;;;;;;6034045;23;20412;-67
2023/01/31 10:09:27;;;;;;;9.23;4.80;;;10.80;10.60;;;;;;6033523;23;20408;-66
2023/01/31 10:11:58;;;;;;;10.63;4.80;;;11.10;10.50;;;;;;6033384;23;20434;-66
2023/01/31 10:14:34;;;;;;;8.37;4.30;;;11.20;9.90;;;;;;6033486;23;20411;-66
2023/01/31 10:17:07;;;;;;;9.33;4.90;;;11.40;9.30;;;;;;6033721;23;20431;-66
2023/01/31 10:19:42;;;;;;;11.40;5.17;;;11.50;9.10;;;;;;6033546;23;20409;-66
2023/01/31 10:22:15;;;;;;;10.93;5.43;;;11.40;8.80;;;;;;6033052;23;20400;-66
2023/01/31 10:24:47;;;;;;;10.93;5.30;;;11.20;8.70;;;;;;6033609;23;20411;-66
2023/01/31 10:27:19;;;;;;;11.50;4.30;;;11.10;9.00;;;;;;6033317;23;20408;-66
2023/01/31 10:29:52;;;;;;;11.10;5.00;;;10.90;9.20;;;;;;6033493;23;20542;-66
2023/01/31 10:32:25;;;;;;;10.00;4.83;;;10.60;10.00;;;;;;6032714;23;20783;-66
2023/01/31 10:34:57;;;;;;;10.97;4.63;;;10.30;10.10;;;;;;6033730;23;20412;-66
2023/01/31 10:37:32;;;;;;;9.50;4.33;;;10.00;10.40;;;;;;6029573;23;20405;-66
2023/01/31 10:40:03;;;;;;;8.87;4.37;;;9.70;11.00;;;;;;6033798;23;20534;-66
2023/01/31 10:42:32;;;;;;;16.73;6.70;;;9.40;11.50;;;;;;6031268;23;20437;-65
2023/01/31 10:45:10;;;;;;;10.43;5.37;;;9.10;12.30;;;;;;6033017;23;20420;-67
2023/01/31 10:47:40;;;;;;;8.80;3.80;;;8.90;12.60;;;;;;6033385;23;20412;-66
2023/01/31 10:50:15;;;;;;;9.00;4.03;;;8.70;12.50;;;;;;6033780;23;20448;-65
2023/01/31 10:53:04;;;;;;;9.10;4.10;;;8.50;12.50;;;;;;6033534;23;20821;-66
2023/01/31 10:55:55;;;;;;;10.00;3.57;;;8.30;13.10;;;;;;6033230;23;20405;-66
2023/01/31 10:58:23;;;;;;;9.73;3.57;;;8.10;13.50;;;;;;6033074;23;20896;-66
2023/01/31 11:00:50;;;;;;;8.97;4.40;;;8.00;14.00;;;;;;6032419;23;20441;-65
2023/01/31 11:03:17;;;;;;;8.37;4.40;;;7.80;14.00;;;;;;6032304;23;21105;-65
2023/01/31 11:05:49;;;;;;;10.30;6.10;;;7.70;14.60;;;;;;6030979;23;20549;-67
2023/01/31 11:08:30;;;;;;;9.80;4.40;;;7.60;14.70;;;;;;6033850;23;20404;-66
2023/01/31 11:10:59;;;;;;;9.40;3.50;;;7.60;15.40;;;;;;6031390;23;20451;-66
2023/01/31 11:13:25;;;;;;;9.47;3.00;;;7.50;15.60;;;;;;6033601;23;20485;-66
2023/01/31 11:15:54;;;;;;;9.50;4.70;;;7.40;15.50;;;;;;6033644;23;20750;-65
2023/01/31 11:18:28;;;;;;;8.80;3.90;;;7.20;15.90;;;;;;6032839;23;20479;-66
2023/01/31 11:20:57;;;;;;;8.07;3.50;;;7.10;15.80;;;;;;6032911;23;20443;-67
2023/01/31 11:23:28;;;;;;;10.27;4.30;;;7.00;16.00;;;;;;6032690;23;20427;-66
2023/01/31 11:25:56;;;;;;;14.20;4.67;;;6.90;16.50;;;;;;6035151;23;20405;-66
2023/01/31 11:28:25;;;;;;;8.90;5.50;;;6.80;16.80;;;;;;6035341;23;20430;-66
2023/01/31 11:30:54;;;;;;;8.30;4.50;;;6.80;17.00;;;;;;6032510;23;20451;-66
2023/01/31 11:33:42;;;;;;;13.60;5.10;;;6.80;17.40;;;;;;6035146;23;20423;-66
2023/01/31 11:36:13;;;;;;;7.80;3.97;;;6.80;17.60;;;;;;6033788;23;20426;-68
2023/01/31 11:38:40;;;;;;;10.57;4.67;;;6.90;18.00;;;;;;6035039;23;20439;-66
2023/01/31 11:41:32;;;;;;;9.90;4.53;;;7.00;17.80;;;;;;6034609;23;20435;-66
2023/01/31 11:44:14;;;;;;;14.33;4.47;;;7.00;18.20;;;;;;6013666;23;20427;-65
2023/01/31 11:46:46;;;;;;;9.87;3.70;;;7.10;17.70;;;;;;6034709;23;20426;-66
2023/01/31 11:49:17;;;;;;;10.37;4.37;;;7.10;17.80;;;;;;6035076;23;20400;-66
2023/01/31 11:51:46;;;;;;;8.77;3.93;;;8.20;18.70;;;;;;6035302;23;20432;-65
2023/01/31 11:54:19;;;;;;;9.00;4.33;;;10.20;14.70;;;;;;6034140;23;20420;-66
2023/01/31 11:56:47;;;;;;;8.03;4.30;;;11.70;12.10;;;;;;6035163;23;20404;-65
2023/01/31 11:59:18;;;;;;;7.50;3.97;;;12.80;9.40;;;;;;6033579;23;20483;-67
2023/01/31 12:01:47;;;;;;;11.80;4.87;;;13.40;7.10;;;;;;6033435;23;20440;-66
2023/01/31 12:04:17;;;;;;;7.17;4.60;;;14.00;6.60;;;;;;6034718;23;20423;-68
2023/01/31 12:06:57;;;;;;;9.70;4.57;;;14.30;5.30;;;;;;6035528;23;20421;-66
2023/01/31 12:09:26;;;;;;;8.30;5.00;;;14.50;5.30;;;;;;6034186;23;20487;-66
2023/01/31 12:11:55;;;;;;;8.10;4.57;;;14.70;4.00;;;;;;6034628;23;20809;-67
2023/01/31 12:14:23;;;;;;;9.23;4.90;;;14.20;4.30;;;;;;6034681;23;20470;-66
2023/01/31 12:16:55;;;;;;;9.53;5.03;;;14.20;4.80;;;;;;6034477;23;20427;-66
2023/01/31 12:19:35;;;;;;;10.70;5.03;;;14.20;4.60;;;;;;6034495;23;20414;-66
2023/01/31 12:22:10;;;;;;;9.33;5.40;;;13.70;4.80;;;;;;6034928;23;20393;-66
2023/01/31 12:24:46;;;;;;;10.70;5.93;;;13.30;6.10;;;;;;6034095;23;20731;-66
2023/01/31 12:27:24;;;;;;;10.03;5.43;;;12.70;6.40;;;;;;6031744;23;20400;-66
2023/01/31 12:30:10;;;;;;;9.67;4.40;;;12.40;7.40;;;;;;6034177;23;20502;-66
2023/01/31 12:32:57;;;;;;;7.70;4.30;;;12.00;7.90;;;;;;6033171;23;20443;-66
2023/01/31 12:35:39;;;;;;;8.90;5.20;;;11.60;8.90;;;;;;6033554;23;20412;-66
2023/01/31 12:38:30;;;;;;;10.10;4.80;;;11.20;9.10;;;;;;6034564;23;20408;-65
2023/01/31 12:41:08;;;;;;;13.73;5.73;;;10.80;9.90;;;;;;6033633;23;20451;-64
2023/01/31 12:43:53;;;;;;;9.30;5.10;;;10.40;10.80;;;;;;6034449;23;20404;-67
2023/01/31 12:46:26;;;;;;;11.23;5.70;;;10.00;11.70;;;;;;6033059;23;20405;-66
2023/01/31 12:49:40;;;;;;;9.60;5.47;;;9.90;12.40;;;;;;6034382;23;20404;-65
2023/01/31 12:52:16;;;;;;;9.40;5.13;;;10.00;12.70;;;;;;6033946;23;20761;-67
2023/01/31 12:54:55;;;;;;;8.73;5.47;;;9.90;12.50;;;;;;6034335;23;20439;-66
2023/01/31 12:57:32;;;;;;;10.10;5.83;;;9.60;12.90;;;;;;6033681;23;20404;-65
2023/01/31 13:00:12;;;;;;;10.73;5.63;;;9.20;13.10;;;;;;6034436;23;20444;-66
2023/01/31 13:02:44;;;;;;;9.80;5.87;;;8.80;14.10;;;;;;6033750;23;20408;-66
2023/01/31 13:05:24;;;;;;;10.73;5.50;;;8.60;14.50;;;;;;6034374;23;20408;-66
2023/01/31 13:07:55;;;;;;;10.90;5.73;;;8.40;15.20;;;;;;6033349;23;20426;-66
2023/01/31 13:10:35;;;;;;;9.37;5.60;;;8.10;15.70;;;;;;6031797;23;20436;-65
2023/01/31 13:13:04;;;;;;;9.17;6.07;;;7.90;16.50;;;;;;6033659;23;20428;-66